createdAt,value
2022-12-25T00:02:07.439Z,100591.09
2022-12-25T00:04:37.381Z,100595.88
2022-12-25T00:07:04.752Z,100603.81
2022-12-25T00:09:32.031Z,100610.16
2022-12-25T00:14:45.455Z,100626.81
2022-12-25T00:17:12.701Z,100631.59
2022-12-25T00:19:41.071Z,100632.75
2022-12-25T00:22:08.383Z,100645.09
2022-12-25T00:24:35.661Z,100644.69
2022-12-25T00:29:47.652Z,100647.47
2022-12-25T00:32:14.126Z,100654.56
2022-12-25T00:34:40.589Z,100644.28
2022-12-25T00:37:07.075Z,100646.66
2022-12-25T00:39:35.492Z,100655.34
2022-12-25T00:44:55.654Z,100655.34
2022-12-25T00:47:24.049Z,100661.34
2022-12-25T00:49:50.668Z,100672.84
2022-12-25T00:52:17.943Z,100688.31
2022-12-25T00:54:47.895Z,100689.50
2022-12-25T01:00:11.240Z,100708.16
2022-12-25T01:02:39.760Z,100708.94
2022-12-25T01:05:06.306Z,100715.28
2022-12-25T01:07:35.525Z,100718.84
2022-12-25T01:10:01.992Z,100716.06
2022-12-25T01:15:14.216Z,100722.00
2022-12-25T01:17:40.638Z,100718.06
2022-12-25T01:20:07.062Z,100716.13
2022-12-25T01:22:33.572Z,100716.91
2022-12-25T01:25:00.007Z,100716.88
2022-12-25T01:30:15.228Z,100711.34
2022-12-25T01:32:41.639Z,100713.72
2022-12-25T01:35:10.894Z,100709.72
2022-12-25T01:37:39.189Z,100709.34
2022-12-25T01:40:08.393Z,100706.19
2022-12-25T01:45:31.211Z,100711.34
2022-12-25T01:48:00.432Z,100712.53
2022-12-25T01:50:28.707Z,100711.31
2022-12-25T01:52:55.127Z,100722.81
2022-12-25T01:55:21.582Z,100724.00
2022-12-25T02:00:32.742Z,100712.13
2022-12-25T02:02:59.280Z,100720.44
2022-12-25T02:05:27.767Z,100717.28
2022-12-25T02:07:54.220Z,100704.56
2022-12-25T02:10:20.647Z,100706.19
2022-12-25T02:12:47.076Z,100707.34
2022-12-25T02:15:13.503Z,100701.78
2022-12-25T02:17:39.934Z,100704.94
2022-12-25T02:20:07.152Z,100704.19
2022-12-25T02:22:34.372Z,100710.91
2022-12-25T02:25:00.790Z,100713.34
2022-12-25T02:27:27.625Z,100710.94
2022-12-25T02:29:53.995Z,100708.97
2022-12-25T02:32:23.185Z,100706.16
2022-12-25T02:34:52.359Z,100696.25
2022-12-25T02:37:19.626Z,100694.69
2022-12-25T02:39:46.047Z,100699.03
2022-12-25T02:42:12.444Z,100697.44
2022-12-25T02:44:38.820Z,100702.63
2022-12-25T02:47:05.146Z,100692.28
2022-12-25T02:49:31.511Z,100702.22
2022-12-25T02:51:57.893Z,100707.81
2022-12-25T02:54:25.190Z,100703.81
2022-12-25T02:56:51.620Z,100709.75
2022-12-25T02:59:18.019Z,100707.38
2022-12-25T03:01:44.495Z,100712.13
2022-12-25T03:04:11.767Z,100710.56
2022-12-25T03:06:39.060Z,100704.56
2022-12-25T03:09:05.471Z,100707.75
2022-12-25T03:11:31.824Z,100710.53
2022-12-25T03:13:58.145Z,100701.00
2022-12-25T03:16:24.563Z,100710.53
2022-12-25T03:18:50.987Z,100719.66
2022-12-25T03:21:17.430Z,100721.25
2022-12-25T03:23:43.873Z,100725.22
2022-12-25T03:26:11.094Z,100720.47
2022-12-25T03:28:37.502Z,100712.91
2022-12-25T03:33:58.758Z,100705.38
2022-12-25T03:36:25.107Z,100714.50
2022-12-25T03:38:52.395Z,100712.50
2022-12-25T03:41:21.595Z,100712.53
2022-12-25T03:43:47.994Z,100709.34
2022-12-25T03:48:58.039Z,100718.47
2022-12-25T03:51:24.481Z,100722.84
2022-12-25T03:53:50.840Z,100720.84
2022-12-25T03:56:18.042Z,100727.59
2022-12-25T03:58:44.412Z,100730.00
2022-12-25T04:03:54.705Z,100733.56
2022-12-25T04:06:21.921Z,100738.34
2022-12-25T04:08:48.265Z,100741.53
2022-12-25T04:11:15.503Z,100741.91
2022-12-25T04:13:41.888Z,100735.56
2022-12-25T04:19:02.426Z,100742.31
2022-12-25T04:21:28.807Z,100743.44
2022-12-25T04:23:56.065Z,100745.03
2022-12-25T04:26:22.412Z,100737.50
2022-12-25T04:28:48.727Z,100741.09
2022-12-25T04:33:59.809Z,100743.44
2022-12-25T04:36:26.213Z,100750.22
2022-12-25T04:38:52.595Z,100746.69
2022-12-25T04:41:19.853Z,100745.88
2022-12-25T04:43:46.261Z,100749.47
2022-12-25T04:49:06.431Z,100758.22
2022-12-25T04:51:32.782Z,100764.94
2022-12-25T04:53:59.125Z,100762.56
2022-12-25T04:56:25.495Z,100755.84
2022-12-25T04:58:51.960Z,100749.88
2022-12-25T05:04:02.122Z,100753.44
2022-12-25T05:06:28.514Z,100747.88
2022-12-25T05:08:54.862Z,100747.50
2022-12-25T05:11:21.199Z,100744.31
2022-12-25T05:13:47.727Z,100752.28
2022-12-25T05:18:58.103Z,100754.28
2022-12-25T05:21:24.427Z,100760.22
2022-12-25T05:23:50.790Z,100775.28
2022-12-25T05:26:17.192Z,100766.19
2022-12-25T05:28:44.411Z,100760.22
2022-12-25T05:34:04.626Z,100760.19
2022-12-25T05:36:31.897Z,100766.16
2022-12-25T05:38:58.364Z,100774.47
2022-12-25T05:41:25.938Z,100776.91
2022-12-25T05:43:55.430Z,100776.91
2022-12-25T05:49:06.830Z,100800.66
2022-12-25T05:51:33.282Z,100791.53
2022-12-25T05:54:02.498Z,100799.47
2022-12-25T05:56:29.735Z,100803.84
2022-12-25T05:58:56.999Z,100802.66
2022-12-25T06:04:19.100Z,100808.63
2022-12-25T06:06:46.882Z,100804.66
2022-12-25T06:09:13.338Z,100815.88
2022-12-25T06:11:39.793Z,100812.56
2022-12-25T06:14:06.603Z,100824.44
2022-12-25T06:19:18.214Z,100839.34
2022-12-25T06:21:44.971Z,100836.53
2022-12-25T06:24:19.194Z,100843.66
2022-12-25T06:26:48.825Z,100850.06
2022-12-25T06:29:15.294Z,100858.66
2022-12-25T06:34:36.745Z,100868.16
2022-12-25T06:37:03.242Z,100858.59
2022-12-25T06:39:29.700Z,100866.59
2022-12-25T06:41:56.150Z,100870.38
2022-12-25T06:44:22.600Z,100861.75
2022-12-25T06:46:49.947Z,100875.69
2022-12-25T06:49:16.484Z,100884.41
2022-12-25T06:51:44.750Z,100886.09
2022-12-25T06:54:11.086Z,100888.81
2022-12-25T06:56:38.442Z,100897.53
2022-12-25T06:59:04.902Z,100900.31
2022-12-25T07:01:31.420Z,100897.59
2022-12-25T07:03:57.940Z,100899.56
2022-12-25T07:06:25.261Z,100913.88
2022-12-25T07:08:53.642Z,100916.25
2022-12-25T07:11:20.966Z,100920.63
2022-12-25T07:13:47.391Z,100925.75
2022-12-25T07:16:13.857Z,100922.16
2022-12-25T07:18:41.199Z,100928.13
2022-12-25T07:21:08.511Z,100930.53
2022-12-25T07:23:34.984Z,100926.22
2022-12-25T07:26:01.442Z,100931.75
2022-12-25T07:28:28.936Z,100936.47
2022-12-25T07:30:56.309Z,100936.47
2022-12-25T07:33:26.245Z,100936.47
2022-12-25T07:35:53.108Z,100940.44
2022-12-25T07:38:20.431Z,100953.47
2022-12-25T07:40:46.850Z,100961.09
2022-12-25T07:43:14.175Z,100954.38
2022-12-25T07:45:41.615Z,100956.38
2022-12-25T07:48:13.371Z,100962.34
2022-12-25T07:50:43.719Z,100974.25
2022-12-25T07:53:11.214Z,100975.47
2022-12-25T07:55:38.630Z,100994.09
2022-12-25T07:58:07.039Z,100985.38
2022-12-25T08:00:33.787Z,100992.91
2022-12-25T08:03:01.193Z,100990.94
2022-12-25T08:08:23.380Z,100998.50
2022-12-25T08:10:50.651Z,100998.94
2022-12-25T08:13:17.995Z,101008.44
2022-12-25T08:15:44.508Z,101010.88
2022-12-25T08:18:10.960Z,101010.06
2022-12-25T08:23:23.293Z,101011.31
2022-12-25T08:25:50.670Z,101008.53
2022-12-25T08:28:18.071Z,101012.88
2022-12-25T08:30:44.571Z,101017.28
2022-12-25T08:33:11.912Z,101013.63
2022-12-25T08:38:24.058Z,101029.06
2022-12-25T08:40:50.494Z,101031.41
2022-12-25T08:43:16.943Z,101039.34
2022-12-25T08:45:44.226Z,101040.91
2022-12-25T08:48:10.784Z,101045.31
2022-12-25T08:53:23.787Z,101057.69
2022-12-25T08:55:50.209Z,101053.69
2022-12-25T08:58:16.673Z,101062.44
2022-12-25T09:00:45.965Z,101058.03
2022-12-25T09:03:13.379Z,101064.72
2022-12-25T09:08:34.131Z,101063.25
2022-12-25T09:11:01.414Z,101064.41
2022-12-25T09:13:27.913Z,101062.03
2022-12-25T09:15:54.431Z,101065.97
2022-12-25T09:18:21.747Z,101075.53
2022-12-25T09:23:43.864Z,101067.50
2022-12-25T09:26:11.172Z,101079.88
2022-12-25T09:28:38.455Z,101083.38
2022-12-25T09:31:04.977Z,101076.66
2022-12-25T09:33:32.361Z,101077.44
2022-12-25T09:38:43.897Z,101069.88
2022-12-25T09:41:12.230Z,101068.34
2022-12-25T09:43:40.615Z,101066.34
2022-12-25T09:46:07.940Z,101062.75
2022-12-25T09:48:36.262Z,101055.59
2022-12-25T09:53:47.780Z,101052.41
2022-12-25T09:56:16.862Z,101060.34
2022-12-25T09:58:43.269Z,101058.72
2022-12-25T10:01:10.600Z,101065.50
2022-12-25T10:03:37.976Z,101064.72
2022-12-25T10:08:49.391Z,101067.88
2022-12-25T10:11:15.895Z,101055.97
2022-12-25T10:13:42.327Z,101059.94
2022-12-25T10:16:10.691Z,101060.75
2022-12-25T10:18:39.071Z,101060.00
2022-12-25T10:24:00.633Z,101068.75
2022-12-25T10:26:27.094Z,101073.50
2022-12-25T10:28:57.071Z,101062.03
2022-12-25T10:31:23.621Z,101063.59
2022-12-25T10:33:50.884Z,101068.69
2022-12-25T10:39:14.135Z,101065.94
2022-12-25T10:41:42.480Z,101068.31
2022-12-25T10:44:09.804Z,101074.66
2022-12-25T10:46:36.357Z,101077.44
2022-12-25T10:49:02.760Z,101076.66
2022-12-25T10:54:24.875Z,101088.16
2022-12-25T10:56:51.305Z,101078.59
2022-12-25T10:59:20.482Z,101066.31
2022-12-25T11:01:53.591Z,101075.81
2022-12-25T11:04:21.486Z,101072.66
2022-12-25T11:09:44.738Z,101063.53
2022-12-25T11:12:12.112Z,101059.13
2022-12-25T11:14:39.442Z,101053.19
2022-12-25T11:17:06.710Z,101059.97
2022-12-25T11:19:33.187Z,101067.50
2022-12-25T11:24:45.368Z,101062.75
2022-12-25T11:27:13.676Z,101061.94
2022-12-25T11:29:40.103Z,101061.56
2022-12-25T11:32:06.547Z,101057.59
2022-12-25T11:34:32.982Z,101060.00
2022-12-25T11:39:45.082Z,101049.69
2022-12-25T11:42:12.338Z,101058.56
2022-12-25T11:44:38.817Z,101049.28
2022-12-25T11:47:05.283Z,101057.59
2022-12-25T11:49:34.475Z,101058.75
2022-12-25T11:54:55.923Z,101065.97
2022-12-25T11:57:22.331Z,101067.56
2022-12-25T11:59:49.555Z,101070.34
2022-12-25T12:02:17.948Z,101069.50
2022-12-25T12:04:44.497Z,101067.13
2022-12-25T12:10:08.671Z,101072.19
2022-12-25T12:12:35.168Z,101081.78
2022-12-25T12:15:04.401Z,101077.31
2022-12-25T12:17:30.840Z,101075.88
2022-12-25T12:19:57.217Z,101080.66
2022-12-25T12:22:23.557Z,101083.94
2022-12-25T12:24:51.129Z,101091.09
2022-12-25T12:27:17.536Z,101093.13
2022-12-25T12:29:43.915Z,101091.50
2022-12-25T12:32:11.229Z,101100.25
2022-12-25T12:34:37.655Z,101096.25
2022-12-25T12:37:04.086Z,101099.44
2022-12-25T12:39:31.317Z,101098.22
2022-12-25T12:41:57.735Z,101095.75
2022-12-25T12:44:24.192Z,101080.34
2022-12-25T12:46:50.656Z,101083.91
2022-12-25T12:49:17.059Z,101079.94
2022-12-25T12:51:43.504Z,101082.31
2022-12-25T12:54:10.035Z,101082.31
2022-12-25T12:56:36.466Z,101085.50
2022-12-25T12:59:02.939Z,101077.97
2022-12-25T13:01:29.449Z,101087.09
2022-12-25T13:03:56.036Z,101072.41
2022-12-25T13:06:22.434Z,101075.56
2022-12-25T13:08:48.879Z,101078.75
2022-12-25T13:11:16.213Z,101072.41
2022-12-25T13:13:43.465Z,101066.47
2022-12-25T13:16:13.809Z,101062.13
2022-12-25T13:18:40.284Z,101073.59
2022-12-25T13:21:07.546Z,101061.75
2022-12-25T13:23:34.943Z,101071.25
2022-12-25T13:26:02.224Z,101085.53
2022-12-25T13:28:30.543Z,101084.34
2022-12-25T13:30:57.946Z,101092.72
2022-12-25T13:33:24.382Z,101097.06
2022-12-25T13:35:50.785Z,101099.81
2022-12-25T13:38:17.295Z,101099.03
2022-12-25T13:43:30.608Z,101100.97
2022-12-25T13:45:57.995Z,101094.25
2022-12-25T13:48:25.381Z,101101.38
2022-12-25T13:50:52.691Z,101108.13
2022-12-25T13:53:19.979Z,101103.38
2022-12-25T13:58:40.488Z,101106.94
2022-12-25T14:01:07.883Z,101112.50
2022-12-25T14:03:34.518Z,101118.44
2022-12-25T14:06:01.870Z,101116.06
2022-12-25T14:08:30.393Z,101114.44
2022-12-25T14:13:43.777Z,101126.75
2022-12-25T14:16:11.150Z,101128.38
2022-12-25T14:18:38.581Z,101133.50
2022-12-25T14:21:05.055Z,101141.84
2022-12-25T14:23:31.490Z,101131.91
2022-12-25T14:28:51.946Z,101134.69
2022-12-25T14:31:18.547Z,101127.09
2022-12-25T14:33:45.014Z,101131.50
2022-12-25T14:36:11.511Z,101136.25
2022-12-25T14:38:38.910Z,101141.06
2022-12-25T14:43:51.131Z,101140.25
2022-12-25T14:46:18.561Z,101142.22
2022-12-25T14:48:45.045Z,101143.84
2022-12-25T14:51:11.482Z,101141.84
2022-12-25T14:53:37.920Z,101145.41
2022-12-25T14:59:00.207Z,101134.69
2022-12-25T15:01:27.628Z,101142.25
2022-12-25T15:03:56.223Z,101142.63
2022-12-25T15:06:23.588Z,101142.25
2022-12-25T15:08:50.923Z,101139.06
2022-12-25T15:14:11.631Z,101151.75
2022-12-25T15:16:38.169Z,101149.38
2022-12-25T15:19:05.570Z,101146.22
2022-12-25T15:21:32.013Z,101139.03
2022-12-25T15:23:59.334Z,101143.38
2022-12-25T15:29:44.634Z,101138.66
2022-12-25T15:32:10.577Z,101136.25
2022-12-25T15:34:37.002Z,101126.31
2022-12-25T15:37:03.503Z,101137.03
2022-12-25T15:39:31.841Z,101137.03
2022-12-25T15:44:54.211Z,101140.19
2022-12-25T15:47:21.600Z,101148.53
2022-12-25T15:49:48.037Z,101148.91
2022-12-25T15:52:14.516Z,101156.44
2022-12-25T15:54:41.926Z,101150.91
2022-12-25T15:59:53.247Z,101152.53
2022-12-25T16:02:20.862Z,101155.69
2022-12-25T16:04:48.408Z,101150.94
2022-12-25T16:07:15.736Z,101158.84
2022-12-25T16:09:43.111Z,101154.44
2022-12-25T16:15:04.561Z,101150.53
2022-12-25T16:17:31.048Z,101142.94
2022-12-25T16:19:57.497Z,101145.34
2022-12-25T16:22:23.991Z,101148.50
2022-12-25T16:24:50.466Z,101141.41
2022-12-25T16:30:01.827Z,101142.53
2022-12-25T16:32:28.292Z,101142.94
2022-12-25T16:34:55.711Z,101154.47
2022-12-25T16:37:23.091Z,101159.59
2022-12-25T16:39:49.605Z,101170.34
2022-12-25T16:45:01.269Z,101163.63
2022-12-25T16:47:27.811Z,101169.94
2022-12-25T16:49:54.257Z,101154.47
2022-12-25T16:52:20.751Z,101156.44
2022-12-25T16:54:48.153Z,101143.34
2022-12-25T17:00:08.864Z,101138.19
2022-12-25T17:02:36.438Z,101140.56
2022-12-25T17:05:04.055Z,101143.72
2022-12-25T17:07:30.531Z,101148.53
2022-12-25T17:09:57.909Z,101148.91
2022-12-25T17:15:08.774Z,101139.78
2022-12-25T17:17:36.164Z,101141.78
2022-12-25T17:20:03.592Z,101138.19
2022-12-25T17:22:30.960Z,101129.84
2022-12-25T17:24:57.439Z,101129.47
2022-12-25T17:30:08.944Z,101134.59
2022-12-25T17:32:35.422Z,101127.88
2022-12-25T17:35:01.916Z,101123.50
2022-12-25T17:37:29.340Z,101129.06
2022-12-25T17:39:55.801Z,101121.09
2022-12-25T17:45:17.574Z,101104.06
2022-12-25T17:47:44.276Z,101103.66
2022-12-25T17:50:10.735Z,101109.25
2022-12-25T17:52:38.138Z,101113.19
2022-12-25T17:55:06.346Z,101102.44
2022-12-25T18:00:17.952Z,101098.09
2022-12-25T18:02:44.553Z,101097.31
2022-12-25T18:05:11.144Z,101091.31
2022-12-25T18:07:38.599Z,101095.31
2022-12-25T18:10:06.003Z,101090.94
2022-12-25T18:12:33.399Z,101102.84
2022-12-25T18:15:00.788Z,101104.41
2022-12-25T18:17:27.297Z,101101.19
2022-12-25T18:19:53.822Z,101115.09
2022-12-25T18:22:21.457Z,101111.09
2022-12-25T18:24:47.910Z,101108.41
2022-12-25T18:27:14.362Z,101113.53
2022-12-25T18:29:40.888Z,101115.47
2022-12-25T18:32:07.397Z,101105.16
2022-12-25T18:34:34.837Z,101107.91
2022-12-25T18:37:02.231Z,101109.16
2022-12-25T18:39:28.710Z,101106.00
2022-12-25T18:41:56.129Z,101106.06
2022-12-25T18:44:22.608Z,101105.16
2022-12-25T18:46:49.083Z,101107.53
2022-12-25T18:49:15.586Z,101103.56
2022-12-25T18:51:43.017Z,101107.53
2022-12-25T18:54:09.505Z,101112.28
2022-12-25T18:56:35.989Z,101107.16
2022-12-25T18:59:03.383Z,101102.00
2022-12-25T19:01:30.184Z,101100.81
2022-12-25T19:04:04.053Z,101101.22
2022-12-25T19:06:31.966Z,101094.88
2022-12-25T19:08:58.453Z,101090.91
2022-12-25T19:11:25.831Z,101086.50
2022-12-25T19:13:53.242Z,101088.09
2022-12-25T19:16:19.819Z,101081.38
2022-12-25T19:18:46.435Z,101073.41
2022-12-25T19:21:12.999Z,101059.53
2022-12-25T19:23:39.701Z,101058.34
2022-12-25T19:26:06.165Z,101065.09
2022-12-25T19:28:32.636Z,101059.16
2022-12-25T19:33:53.792Z,101056.00
2022-12-25T19:36:21.173Z,101054.38
2022-12-25T19:38:47.676Z,101043.69
2022-12-25T19:41:14.326Z,101043.28
2022-12-25T19:43:41.743Z,101049.22
2022-12-25T19:48:52.526Z,101055.94
2022-12-25T19:51:19.029Z,101065.47
2022-12-25T19:53:46.613Z,101071.34
2022-12-25T19:56:13.074Z,101066.22
2022-12-25T19:58:40.493Z,101065.47
2022-12-25T20:04:01.848Z,101061.50
2022-12-25T20:06:29.250Z,101069.00
2022-12-25T20:08:55.735Z,101071.44
2022-12-25T20:11:22.417Z,101075.78
2022-12-25T20:13:49.704Z,101070.22
2022-12-25T20:19:01.019Z,101072.16
2022-12-25T20:21:27.588Z,101062.69
2022-12-25T20:23:54.204Z,101047.13
2022-12-25T20:26:21.621Z,101053.19
2022-12-25T20:28:48.175Z,101055.97
2022-12-25T20:34:08.633Z,101052.44
2022-12-25T20:36:37.739Z,101056.03
2022-12-25T20:39:04.692Z,101047.28
2022-12-25T20:41:31.348Z,101038.16
2022-12-25T20:43:57.917Z,101037.78
2022-12-25T20:49:10.437Z,101033.91
2022-12-25T20:51:36.982Z,101026.69
2022-12-25T20:54:03.667Z,101020.78
2022-12-25T20:56:30.180Z,101020.00
2022-12-25T20:58:57.612Z,101011.59
2022-12-25T21:04:12.889Z,101008.06
2022-12-25T21:06:42.433Z,101008.84
2022-12-25T21:09:09.869Z,101000.88
2022-12-25T21:11:36.335Z,101004.44
2022-12-25T21:14:02.831Z,100996.94
2022-12-25T21:19:13.295Z,100999.06
2022-12-25T21:21:39.776Z,101001.75
2022-12-25T21:24:07.466Z,100998.63
2022-12-25T21:26:34.860Z,100990.25
2022-12-25T21:29:02.290Z,100975.94
2022-12-25T21:34:23.038Z,100981.31
2022-12-25T21:36:49.518Z,100989.28
2022-12-25T21:39:15.987Z,100980.19
2022-12-25T21:41:42.628Z,100977.41
2022-12-25T21:44:10.102Z,100977.75
2022-12-25T21:49:20.618Z,100973.41
2022-12-25T21:51:47.129Z,100975.38
2022-12-25T21:54:13.734Z,100970.66
2022-12-25T21:56:44.461Z,100962.34
2022-12-25T21:59:11.609Z,100962.84
2022-12-25T22:04:23.310Z,100954.03
2022-12-25T22:06:49.890Z,100947.31
2022-12-25T22:09:16.369Z,100942.88
2022-12-25T22:11:43.791Z,100936.56
2022-12-25T22:14:11.201Z,100939.81
2022-12-25T22:19:33.455Z,100924.72
2022-12-25T22:22:00.903Z,100926.75
2022-12-25T22:24:27.458Z,100919.13
2022-12-25T22:26:54.094Z,100921.13
2022-12-25T22:29:21.529Z,100919.13
2022-12-25T22:31:49.012Z,100911.94
2022-12-25T22:34:16.488Z,100905.63
2022-12-25T22:36:42.962Z,100904.84
2022-12-25T22:39:10.223Z,100897.28
2022-12-25T22:41:37.619Z,100888.09
2022-12-25T22:44:17.067Z,100882.53
2022-12-25T22:46:43.884Z,100881.75
2022-12-25T22:49:11.355Z,100885.69
2022-12-25T22:51:37.893Z,100888.09
2022-12-25T22:54:05.367Z,100884.53
2022-12-25T22:56:31.816Z,100875.38
2022-12-25T22:58:58.260Z,100865.84
2022-12-25T23:01:24.782Z,100866.63
2022-12-25T23:03:52.109Z,100870.59
2022-12-25T23:06:19.567Z,100874.16
2022-12-25T23:08:46.938Z,100881.34
2022-12-25T23:11:13.401Z,100891.28
2022-12-25T23:13:40.773Z,100881.34
2022-12-25T23:16:09.210Z,100877.38
2022-12-25T23:18:35.700Z,100863.16
2022-12-25T23:21:02.172Z,100864.63
2022-12-25T23:23:29.606Z,100854.34
2022-12-25T23:25:56.061Z,100850.31
2022-12-25T23:28:22.531Z,100834.06
2022-12-25T23:30:49.033Z,100851.16
2022-12-25T23:33:16.422Z,100851.56
2022-12-25T23:35:42.924Z,100845.16
2022-12-25T23:38:09.408Z,100842.41
2022-12-25T23:40:35.939Z,100838.81
2022-12-25T23:43:02.414Z,100846.41
2022-12-25T23:45:28.873Z,100846.38
2022-12-25T23:47:55.325Z,100830.91
2022-12-25T23:53:07.416Z,100823.75
2022-12-25T23:55:34.768Z,100820.19
2022-12-25T23:58:01.269Z,100817.75
